sensor_id;sensor_type;location;lat;lon;timestamp;P1;durP1;ratioP1;P2;durP2;ratioP2
51495;SDS011;37572;52.094;4.870;2023-06-14T00:00:38;5.72;;;3.90;;
51495;SDS011;37572;52.094;4.870;2023-06-14T00:03:07;7.28;;;4.32;;
51495;SDS011;37572;52.094;4.870;2023-06-14T00:05:36;6.15;;;4.00;;
51495;SDS011;37572;52.094;4.870;2023-06-14T00:08:06;6.30;;;4.47;;
51495;SDS011;37572;52.094;4.870;2023-06-14T00:10:33;7.28;;;5.07;;
51495;SDS011;37572;52.094;4.870;2023-06-14T00:13:02;6.50;;;3.78;;
51495;SDS011;37572;52.094;4.870;2023-06-14T00:15:29;9.40;;;4.72;;
51495;SDS011;37572;52.094;4.870;2023-06-14T00:17:56;6.55;;;4.72;;
51495;SDS011;37572;52.094;4.870;2023-06-14T00:20:21;5.95;;;3.85;;
51495;SDS011;37572;52.094;4.870;2023-06-14T00:22:47;6.15;;;3.92;;
51495;SDS011;37572;52.094;4.870;2023-06-14T00:25:13;8.77;;;4.55;;
51495;SDS011;37572;52.094;4.870;2023-06-14T00:27:38;6.32;;;4.35;;
51495;SDS011;37572;52.094;4.870;2023-06-14T00:30:03;6.60;;;4.20;;
51495;SDS011;37572;52.094;4.870;2023-06-14T00:32:29;6.55;;;4.05;;
51495;SDS011;37572;52.094;4.870;2023-06-14T00:34:54;7.18;;;4.10;;
51495;SDS011;37572;52.094;4.870;2023-06-14T00:37:20;7.90;;;4.13;;
51495;SDS011;37572;52.094;4.870;2023-06-14T00:39:45;8.50;;;4.60;;
51495;SDS011;37572;52.094;4.870;2023-06-14T00:42:10;6.03;;;4.50;;
51495;SDS011;37572;52.094;4.870;2023-06-14T00:44:36;7.50;;;4.85;;
51495;SDS011;37572;52.094;4.870;2023-06-14T00:47:01;7.10;;;4.40;;
51495;SDS011;37572;52.094;4.870;2023-06-14T00:49:27;8.25;;;4.65;;
51495;SDS011;37572;52.094;4.870;2023-06-14T00:51:54;6.30;;;3.92;;
51495;SDS011;37572;52.094;4.870;2023-06-14T00:54:20;5.80;;;4.20;;
51495;SDS011;37572;52.094;4.870;2023-06-14T00:56:45;5.00;;;4.17;;
51495;SDS011;37572;52.094;4.870;2023-06-14T00:59:10;5.72;;;4.07;;
51495;SDS011;37572;52.094;4.870;2023-06-14T01:01:36;6.68;;;3.42;;
51495;SDS011;37572;52.094;4.870;2023-06-14T01:04:02;5.35;;;3.75;;
51495;SDS011;37572;52.094;4.870;2023-06-14T01:06:32;7.93;;;3.88;;
51495;SDS011;37572;52.094;4.870;2023-06-14T01:09:12;5.03;;;3.33;;
51495;SDS011;37572;52.094;4.870;2023-06-14T01:12:04;4.90;;;3.47;;
51495;SDS011;37572;52.094;4.870;2023-06-14T01:14:35;4.93;;;3.42;;
51495;SDS011;37572;52.094;4.870;2023-06-14T01:17:01;6.07;;;3.50;;
51495;SDS011;37572;52.094;4.870;2023-06-14T01:19:27;4.78;;;2.47;;
51495;SDS011;37572;52.094;4.870;2023-06-14T01:21:53;7.78;;;3.95;;
51495;SDS011;37572;52.094;4.870;2023-06-14T01:24:20;6.75;;;3.40;;
51495;SDS011;37572;52.094;4.870;2023-06-14T01:26:50;6.32;;;3.53;;
51495;SDS011;37572;52.094;4.870;2023-06-14T01:29:20;5.57;;;3.30;;
51495;SDS011;37572;52.094;4.870;2023-06-14T01:31:47;5.60;;;3.28;;
51495;SDS011;37572;52.094;4.870;2023-06-14T01:34:13;6.63;;;3.65;;
51495;SDS011;37572;52.094;4.870;2023-06-14T01:36:40;4.68;;;3.50;;
51495;SDS011;37572;52.094;4.870;2023-06-14T01:39:09;6.57;;;3.88;;
51495;SDS011;37572;52.094;4.870;2023-06-14T01:41:37;5.20;;;3.97;;
51495;SDS011;37572;52.094;4.870;2023-06-14T01:44:03;5.30;;;3.03;;
51495;SDS011;37572;52.094;4.870;2023-06-14T01:46:29;7.57;;;3.90;;
51495;SDS011;37572;52.094;4.870;2023-06-14T01:48:55;6.20;;;3.00;;
51495;SDS011;37572;52.094;4.870;2023-06-14T01:51:20;5.93;;;3.27;;
51495;SDS011;37572;52.094;4.870;2023-06-14T01:53:45;5.90;;;3.00;;
51495;SDS011;37572;52.094;4.870;2023-06-14T01:56:11;6.30;;;3.20;;
51495;SDS011;37572;52.094;4.870;2023-06-14T01:58:37;9.55;;;4.20;;
51495;SDS011;37572;52.094;4.870;2023-06-14T02:01:02;6.05;;;3.28;;
51495;SDS011;37572;52.094;4.870;2023-06-14T02:03:28;6.07;;;3.55;;
51495;SDS011;37572;52.094;4.870;2023-06-14T02:05:53;5.87;;;3.10;;
51495;SDS011;37572;52.094;4.870;2023-06-14T02:08:20;8.15;;;3.78;;
51495;SDS011;37572;52.094;4.870;2023-06-14T02:10:45;4.88;;;3.58;;
51495;SDS011;37572;52.094;4.870;2023-06-14T02:13:11;5.30;;;3.55;;
51495;SDS011;37572;52.094;4.870;2023-06-14T02:15:36;6.03;;;3.85;;
51495;SDS011;37572;52.094;4.870;2023-06-14T02:18:02;6.68;;;3.08;;
51495;SDS011;37572;52.094;4.870;2023-06-14T02:20:28;6.13;;;3.20;;
51495;SDS011;37572;52.094;4.870;2023-06-14T02:22:54;8.55;;;3.92;;
51495;SDS011;37572;52.094;4.870;2023-06-14T02:25:19;5.72;;;3.58;;
51495;SDS011;37572;52.094;4.870;2023-06-14T02:27:46;5.70;;;3.42;;
51495;SDS011;37572;52.094;4.870;2023-06-14T02:30:11;5.70;;;3.10;;
51495;SDS011;37572;52.094;4.870;2023-06-14T02:32:37;8.60;;;3.65;;
51495;SDS011;37572;52.094;4.870;2023-06-14T02:35:03;5.90;;;3.95;;
51495;SDS011;37572;52.094;4.870;2023-06-14T02:37:29;5.05;;;4.05;;
51495;SDS011;37572;52.094;4.870;2023-06-14T02:39:54;6.13;;;3.88;;
51495;SDS011;37572;52.094;4.870;2023-06-14T02:42:20;9.48;;;4.72;;
51495;SDS011;37572;52.094;4.870;2023-06-14T02:44:45;6.20;;;4.10;;
51495;SDS011;37572;52.094;4.870;2023-06-14T02:47:11;8.02;;;3.90;;
51495;SDS011;37572;52.094;4.870;2023-06-14T02:49:37;7.13;;;4.70;;
51495;SDS011;37572;52.094;4.870;2023-06-14T02:52:02;7.63;;;4.27;;
51495;SDS011;37572;52.094;4.870;2023-06-14T02:54:28;7.05;;;3.92;;
51495;SDS011;37572;52.094;4.870;2023-06-14T02:56:53;5.80;;;4.10;;
51495;SDS011;37572;52.094;4.870;2023-06-14T02:59:19;6.68;;;3.70;;
51495;SDS011;37572;52.094;4.870;2023-06-14T03:01:46;7.22;;;3.53;;
51495;SDS011;37572;52.094;4.870;2023-06-14T03:04:11;8.48;;;4.30;;
51495;SDS011;37572;52.094;4.870;2023-06-14T03:06:37;7.20;;;4.30;;
51495;SDS011;37572;52.094;4.870;2023-06-14T03:09:03;6.25;;;3.22;;
51495;SDS011;37572;52.094;4.870;2023-06-14T03:11:34;6.38;;;4.30;;
51495;SDS011;37572;52.094;4.870;2023-06-14T03:13:59;6.03;;;3.83;;
51495;SDS011;37572;52.094;4.870;2023-06-14T03:16:25;4.32;;;3.28;;
51495;SDS011;37572;52.094;4.870;2023-06-14T03:18:51;7.40;;;3.20;;
51495;SDS011;37572;52.094;4.870;2023-06-14T03:21:17;6.68;;;3.95;;
51495;SDS011;37572;52.094;4.870;2023-06-14T03:23:43;7.45;;;3.50;;
51495;SDS011;37572;52.094;4.870;2023-06-14T03:26:09;4.45;;;2.72;;
51495;SDS011;37572;52.094;4.870;2023-06-14T03:28:37;5.53;;;3.60;;
51495;SDS011;37572;52.094;4.870;2023-06-14T03:31:03;7.43;;;3.88;;
51495;SDS011;37572;52.094;4.870;2023-06-14T03:33:28;5.57;;;3.70;;
51495;SDS011;37572;52.094;4.870;2023-06-14T03:35:53;6.27;;;3.80;;
51495;SDS011;37572;52.094;4.870;2023-06-14T03:38:19;4.93;;;3.28;;
51495;SDS011;37572;52.094;4.870;2023-06-14T03:40:44;6.50;;;3.20;;
51495;SDS011;37572;52.094;4.870;2023-06-14T03:43:10;7.25;;;3.90;;
51495;SDS011;37572;52.094;4.870;2023-06-14T03:45:35;4.82;;;3.38;;
51495;SDS011;37572;52.094;4.870;2023-06-14T03:48:00;6.87;;;3.10;;
51495;SDS011;37572;52.094;4.870;2023-06-14T03:50:26;6.28;;;3.10;;
51495;SDS011;37572;52.094;4.870;2023-06-14T03:52:52;4.13;;;3.05;;
51495;SDS011;37572;52.094;4.870;2023-06-14T03:55:18;6.13;;;3.25;;
51495;SDS011;37572;52.094;4.870;2023-06-14T03:57:43;6.97;;;3.63;;
51495;SDS011;37572;52.094;4.870;2023-06-14T04:00:09;7.47;;;3.42;;
51495;SDS011;37572;52.094;4.870;2023-06-14T04:02:35;6.03;;;3.70;;
51495;SDS011;37572;52.094;4.870;2023-06-14T04:05:01;6.22;;;3.22;;
51495;SDS011;37572;52.094;4.870;2023-06-14T04:07:27;6.10;;;3.50;;
51495;SDS011;37572;52.094;4.870;2023-06-14T04:09:53;6.88;;;3.60;;
51495;SDS011;37572;52.094;4.870;2023-06-14T04:12:19;6.78;;;2.83;;
51495;SDS011;37572;52.094;4.870;2023-06-14T04:14:45;4.88;;;3.63;;
51495;SDS011;37572;52.094;4.870;2023-06-14T04:17:10;6.13;;;3.27;;
51495;SDS011;37572;52.094;4.870;2023-06-14T04:19:36;5.03;;;3.10;;
51495;SDS011;37572;52.094;4.870;2023-06-14T04:22:01;8.07;;;3.30;;
51495;SDS011;37572;52.094;4.870;2023-06-14T04:24:27;7.30;;;3.17;;
51495;SDS011;37572;52.094;4.870;2023-06-14T04:26:58;6.03;;;3.10;;
51495;SDS011;37572;52.094;4.870;2023-06-14T04:29:23;6.18;;;3.40;;
51495;SDS011;37572;52.094;4.870;2023-06-14T04:31:53;7.68;;;3.33;;
51495;SDS011;37572;52.094;4.870;2023-06-14T04:34:19;6.53;;;3.78;;
51495;SDS011;37572;52.094;4.870;2023-06-14T04:36:46;8.10;;;4.50;;
51495;SDS011;37572;52.094;4.870;2023-06-14T04:39:21;5.82;;;3.03;;
51495;SDS011;37572;52.094;4.870;2023-06-14T04:41:47;5.90;;;3.15;;
51495;SDS011;37572;52.094;4.870;2023-06-14T04:44:18;6.75;;;3.50;;
51495;SDS011;37572;52.094;4.870;2023-06-14T04:46:44;7.85;;;3.50;;
51495;SDS011;37572;52.094;4.870;2023-06-14T04:49:13;8.27;;;3.88;;
51495;SDS011;37572;52.094;4.870;2023-06-14T04:51:42;4.82;;;3.22;;
51495;SDS011;37572;52.094;4.870;2023-06-14T04:54:09;6.70;;;3.53;;
51495;SDS011;37572;52.094;4.870;2023-06-14T04:56:38;6.68;;;3.58;;
51495;SDS011;37572;52.094;4.870;2023-06-14T04:59:03;6.67;;;3.43;;
51495;SDS011;37572;52.094;4.870;2023-06-14T05:01:31;4.35;;;3.55;;
51495;SDS011;37572;52.094;4.870;2023-06-14T05:03:58;5.97;;;3.63;;
51495;SDS011;37572;52.094;4.870;2023-06-14T05:06:23;4.40;;;2.58;;
51495;SDS011;37572;52.094;4.870;2023-06-14T05:08:49;3.90;;;2.63;;
51495;SDS011;37572;52.094;4.870;2023-06-14T05:11:14;6.60;;;3.28;;
51495;SDS011;37572;52.094;4.870;2023-06-14T05:13:41;5.78;;;3.85;;
51495;SDS011;37572;52.094;4.870;2023-06-14T05:16:07;5.25;;;3.35;;
51495;SDS011;37572;52.094;4.870;2023-06-14T05:18:32;7.93;;;3.23;;
51495;SDS011;37572;52.094;4.870;2023-06-14T05:21:00;6.22;;;3.83;;
51495;SDS011;37572;52.094;4.870;2023-06-14T05:23:26;8.77;;;4.30;;
51495;SDS011;37572;52.094;4.870;2023-06-14T05:25:51;7.13;;;4.05;;
51495;SDS011;37572;52.094;4.870;2023-06-14T05:28:16;7.13;;;3.30;;
51495;SDS011;37572;52.094;4.870;2023-06-14T05:30:42;6.18;;;3.40;;
51495;SDS011;37572;52.094;4.870;2023-06-14T05:33:07;7.83;;;4.70;;
51495;SDS011;37572;52.094;4.870;2023-06-14T05:35:33;8.68;;;3.53;;
51495;SDS011;37572;52.094;4.870;2023-06-14T05:37:58;5.57;;;3.08;;
51495;SDS011;37572;52.094;4.870;2023-06-14T05:40:23;5.32;;;2.92;;
51495;SDS011;37572;52.094;4.870;2023-06-14T05:42:49;4.93;;;3.40;;
51495;SDS011;37572;52.094;4.870;2023-06-14T05:45:14;6.50;;;4.28;;
51495;SDS011;37572;52.094;4.870;2023-06-14T05:47:43;5.82;;;4.07;;
51495;SDS011;37572;52.094;4.870;2023-06-14T05:50:08;6.57;;;3.80;;
51495;SDS011;37572;52.094;4.870;2023-06-14T05:52:34;6.13;;;3.70;;
51495;SDS011;37572;52.094;4.870;2023-06-14T05:55:01;5.57;;;3.50;;
51495;SDS011;37572;52.094;4.870;2023-06-14T05:57:28;6.03;;;3.50;;
51495;SDS011;37572;52.094;4.870;2023-06-14T05:59:53;6.28;;;3.63;;
51495;SDS011;37572;52.094;4.870;2023-06-14T06:02:19;6.57;;;3.60;;
51495;SDS011;37572;52.094;4.870;2023-06-14T06:04:44;7.05;;;3.50;;
51495;SDS011;37572;52.094;4.870;2023-06-14T06:07:10;7.13;;;3.72;;
51495;SDS011;37572;52.094;4.870;2023-06-14T06:09:35;7.25;;;3.58;;
51495;SDS011;37572;52.094;4.870;2023-06-14T06:12:00;5.25;;;3.97;;
51495;SDS011;37572;52.094;4.870;2023-06-14T06:14:26;7.13;;;4.13;;
51495;SDS011;37572;52.094;4.870;2023-06-14T06:16:51;5.73;;;3.47;;
51495;SDS011;37572;52.094;4.870;2023-06-14T06:19:17;5.70;;;3.15;;
51495;SDS011;37572;52.094;4.870;2023-06-14T06:21:43;4.82;;;3.55;;
51495;SDS011;37572;52.094;4.870;2023-06-14T06:24:08;5.97;;;2.85;;
51495;SDS011;37572;52.094;4.870;2023-06-14T06:26:33;8.23;;;3.92;;
51495;SDS011;37572;52.094;4.870;2023-06-14T06:28:59;6.70;;;3.30;;
51495;SDS011;37572;52.094;4.870;2023-06-14T06:31:24;7.20;;;4.25;;
51495;SDS011;37572;52.094;4.870;2023-06-14T06:33:50;7.90;;;3.33;;
51495;SDS011;37572;52.094;4.870;2023-06-14T06:36:16;5.95;;;3.78;;
51495;SDS011;37572;52.094;4.870;2023-06-14T06:38:41;4.50;;;3.03;;
51495;SDS011;37572;52.094;4.870;2023-06-14T06:41:06;4.97;;;3.42;;
51495;SDS011;37572;52.094;4.870;2023-06-14T06:43:32;6.45;;;3.42;;
51495;SDS011;37572;52.094;4.870;2023-06-14T06:45:57;5.83;;;2.93;;
51495;SDS011;37572;52.094;4.870;2023-06-14T06:48:22;9.80;;;3.93;;
51495;SDS011;37572;52.094;4.870;2023-06-14T06:50:48;5.78;;;3.53;;
51495;SDS011;37572;52.094;4.870;2023-06-14T06:53:13;5.83;;;3.47;;
51495;SDS011;37572;52.094;4.870;2023-06-14T06:55:38;5.50;;;3.20;;
51495;SDS011;37572;52.094;4.870;2023-06-14T06:58:04;6.30;;;3.55;;
51495;SDS011;37572;52.094;4.870;2023-06-14T07:00:30;6.30;;;3.70;;
51495;SDS011;37572;52.094;4.870;2023-06-14T07:02:55;6.13;;;3.42;;
51495;SDS011;37572;52.094;4.870;2023-06-14T07:05:21;9.27;;;3.53;;
51495;SDS011;37572;52.094;4.870;2023-06-14T07:07:47;4.18;;;3.10;;
51495;SDS011;37572;52.094;4.870;2023-06-14T07:10:12;5.47;;;3.33;;
51495;SDS011;37572;52.094;4.870;2023-06-14T07:12:37;6.47;;;3.38;;
51495;SDS011;37572;52.094;4.870;2023-06-14T07:15:05;5.13;;;3.08;;
51495;SDS011;37572;52.094;4.870;2023-06-14T07:17:33;7.00;;;2.72;;
51495;SDS011;37572;52.094;4.870;2023-06-14T07:19:59;5.03;;;3.53;;
51495;SDS011;37572;52.094;4.870;2023-06-14T07:22:25;7.18;;;3.13;;
51495;SDS011;37572;52.094;4.870;2023-06-14T07:24:51;6.68;;;3.17;;
51495;SDS011;37572;52.094;4.870;2023-06-14T07:27:16;8.10;;;3.65;;
51495;SDS011;37572;52.094;4.870;2023-06-14T07:29:42;5.15;;;3.25;;
51495;SDS011;37572;52.094;4.870;2023-06-14T07:32:07;5.07;;;3.33;;
51495;SDS011;37572;52.094;4.870;2023-06-14T07:34:32;7.63;;;3.13;;
51495;SDS011;37572;52.094;4.870;2023-06-14T07:36:58;6.03;;;3.60;;
51495;SDS011;37572;52.094;4.870;2023-06-14T07:39:23;5.63;;;2.90;;
51495;SDS011;37572;52.094;4.870;2023-06-14T07:41:48;5.00;;;3.37;;
51495;SDS011;37572;52.094;4.870;2023-06-14T07:44:14;4.78;;;2.95;;
51495;SDS011;37572;52.094;4.870;2023-06-14T07:46:40;6.65;;;3.97;;
51495;SDS011;37572;52.094;4.870;2023-06-14T07:49:06;6.70;;;3.40;;
51495;SDS011;37572;52.094;4.870;2023-06-14T07:51:31;4.72;;;3.20;;
51495;SDS011;37572;52.094;4.870;2023-06-14T07:53:58;9.07;;;2.83;;
51495;SDS011;37572;52.094;4.870;2023-06-14T07:56:25;5.82;;;3.22;;
51495;SDS011;37572;52.094;4.870;2023-06-14T07:58:51;5.32;;;3.05;;
51495;SDS011;37572;52.094;4.870;2023-06-14T08:01:16;5.23;;;3.67;;
51495;SDS011;37572;52.094;4.870;2023-06-14T08:03:42;7.03;;;3.55;;
51495;SDS011;37572;52.094;4.870;2023-06-14T08:06:08;7.03;;;3.20;;
51495;SDS011;37572;52.094;4.870;2023-06-14T08:08:33;7.40;;;3.30;;
51495;SDS011;37572;52.094;4.870;2023-06-14T08:10:58;4.18;;;3.30;;
51495;SDS011;37572;52.094;4.870;2023-06-14T08:13:24;5.27;;;3.23;;
51495;SDS011;37572;52.094;4.870;2023-06-14T08:15:49;4.88;;;3.10;;
51495;SDS011;37572;52.094;4.870;2023-06-14T08:18:15;4.75;;;3.33;;
51495;SDS011;37572;52.094;4.870;2023-06-14T08:20:40;5.97;;;3.25;;
51495;SDS011;37572;52.094;4.870;2023-06-14T08:23:06;7.35;;;3.30;;
51495;SDS011;37572;52.094;4.870;2023-06-14T08:25:31;5.53;;;3.42;;
51495;SDS011;37572;52.094;4.870;2023-06-14T08:27:57;7.18;;;3.30;;
51495;SDS011;37572;52.094;4.870;2023-06-14T08:30:23;4.05;;;2.88;;
51495;SDS011;37572;52.094;4.870;2023-06-14T08:32:48;5.68;;;3.22;;
51495;SDS011;37572;52.094;4.870;2023-06-14T08:35:14;5.68;;;2.60;;
51495;SDS011;37572;52.094;4.870;2023-06-14T08:37:41;5.50;;;3.63;;
51495;SDS011;37572;52.094;4.870;2023-06-14T08:40:19;6.15;;;3.67;;
51495;SDS011;37572;52.094;4.870;2023-06-14T08:42:52;7.57;;;3.15;;
51495;SDS011;37572;52.094;4.870;2023-06-14T08:45:23;4.40;;;2.78;;
51495;SDS011;37572;52.094;4.870;2023-06-14T08:47:52;4.03;;;2.65;;
51495;SDS011;37572;52.094;4.870;2023-06-14T08:50:22;6.15;;;3.33;;
51495;SDS011;37572;52.094;4.870;2023-06-14T08:52:51;3.85;;;2.85;;
51495;SDS011;37572;52.094;4.870;2023-06-14T08:55:19;3.72;;;2.63;;
51495;SDS011;37572;52.094;4.870;2023-06-14T08:57:46;6.50;;;2.92;;
51495;SDS011;37572;52.094;4.870;2023-06-14T09:00:14;5.90;;;2.70;;
51495;SDS011;37572;52.094;4.870;2023-06-14T09:02:40;5.40;;;3.03;;
51495;SDS011;37572;52.094;4.870;2023-06-14T09:05:11;5.28;;;2.65;;
51495;SDS011;37572;52.094;4.870;2023-06-14T09:07:43;6.88;;;2.83;;
51495;SDS011;37572;52.094;4.870;2023-06-14T09:10:09;3.40;;;2.40;;
51495;SDS011;37572;52.094;4.870;2023-06-14T09:12:39;5.28;;;2.75;;
51495;SDS011;37572;52.094;4.870;2023-06-14T09:15:05;3.40;;;2.70;;
51495;SDS011;37572;52.094;4.870;2023-06-14T09:17:33;3.40;;;2.67;;
51495;SDS011;37572;52.094;4.870;2023-06-14T09:20:00;5.53;;;2.70;;
51495;SDS011;37572;52.094;4.870;2023-06-14T09:22:25;5.30;;;2.85;;
51495;SDS011;37572;52.094;4.870;2023-06-14T09:24:54;4.15;;;2.63;;
51495;SDS011;37572;52.094;4.870;2023-06-14T09:27:19;5.47;;;2.53;;
51495;SDS011;37572;52.094;4.870;2023-06-14T09:29:44;3.33;;;2.20;;
51495;SDS011;37572;52.094;4.870;2023-06-14T09:32:10;4.57;;;2.90;;
51495;SDS011;37572;52.094;4.870;2023-06-14T09:34:35;4.20;;;2.53;;
51495;SDS011;37572;52.094;4.870;2023-06-14T09:37:01;4.03;;;1.98;;
51495;SDS011;37572;52.094;4.870;2023-06-14T09:39:26;4.57;;;2.15;;
51495;SDS011;37572;52.094;4.870;2023-06-14T09:41:52;5.47;;;2.60;;
51495;SDS011;37572;52.094;4.870;2023-06-14T09:44:17;3.35;;;2.40;;
51495;SDS011;37572;52.094;4.870;2023-06-14T09:46:43;3.33;;;1.90;;
51495;SDS011;37572;52.094;4.870;2023-06-14T09:49:09;4.05;;;1.90;;
51495;SDS011;37572;52.094;4.870;2023-06-14T09:51:34;4.50;;;2.22;;
51495;SDS011;37572;52.094;4.870;2023-06-14T09:54:07;4.53;;;2.00;;
51495;SDS011;37572;52.094;4.870;2023-06-14T09:56:35;3.17;;;2.13;;
51495;SDS011;37572;52.094;4.870;2023-06-14T09:59:04;4.53;;;2.30;;
51495;SDS011;37572;52.094;4.870;2023-06-14T10:01:31;4.72;;;2.47;;
51495;SDS011;37572;52.094;4.870;2023-06-14T10:04:05;3.00;;;2.20;;
51495;SDS011;37572;52.094;4.870;2023-06-14T10:06:31;4.28;;;1.95;;
51495;SDS011;37572;52.094;4.870;2023-06-14T10:09:02;4.38;;;1.85;;
51495;SDS011;37572;52.094;4.870;2023-06-14T10:11:30;7.03;;;1.70;;
51495;SDS011;37572;52.094;4.870;2023-06-14T10:13:56;5.32;;;1.98;;
51495;SDS011;37572;52.094;4.870;2023-06-14T10:16:30;3.60;;;1.90;;
51495;SDS011;37572;52.094;4.870;2023-06-14T10:19:07;4.13;;;1.80;;
51495;SDS011;37572;52.094;4.870;2023-06-14T10:24:43;3.42;;;1.80;;
51495;SDS011;37572;52.094;4.870;2023-06-14T10:27:10;3.97;;;2.08;;
51495;SDS011;37572;52.094;4.870;2023-06-14T10:32:18;3.40;;;1.60;;
51495;SDS011;37572;52.094;4.870;2023-06-14T10:34:45;4.63;;;1.90;;
51495;SDS011;37572;52.094;4.870;2023-06-14T10:37:11;3.55;;;1.98;;
51495;SDS011;37572;52.094;4.870;2023-06-14T10:39:41;2.55;;;1.73;;
51495;SDS011;37572;52.094;4.870;2023-06-14T10:42:08;3.70;;;1.80;;
51495;SDS011;37572;52.094;4.870;2023-06-14T10:47:07;3.47;;;1.75;;
51495;SDS011;37572;52.094;4.870;2023-06-14T10:49:42;2.90;;;1.73;;
51495;SDS011;37572;52.094;4.870;2023-06-14T10:52:09;3.40;;;1.63;;
51495;SDS011;37572;52.094;4.870;2023-06-14T10:57:37;3.33;;;1.98;;
51495;SDS011;37572;52.094;4.870;2023-06-14T11:00:04;4.78;;;2.00;;
51495;SDS011;37572;52.094;4.870;2023-06-14T11:05:05;2.33;;;1.40;;
51495;SDS011;37572;52.094;4.870;2023-06-14T11:07:39;3.47;;;1.60;;
51495;SDS011;37572;52.094;4.870;2023-06-14T11:13:00;3.78;;;1.92;;
51495;SDS011;37572;52.094;4.870;2023-06-14T11:15:29;3.10;;;1.63;;
51495;SDS011;37572;52.094;4.870;2023-06-14T11:18:02;4.18;;;1.80;;
51495;SDS011;37572;52.094;4.870;2023-06-14T11:20:30;2.95;;;1.50;;
51495;SDS011;37572;52.094;4.870;2023-06-14T11:22:58;4.20;;;1.77;;
51495;SDS011;37572;52.094;4.870;2023-06-14T11:25:24;2.22;;;1.73;;
51495;SDS011;37572;52.094;4.870;2023-06-14T11:27:49;2.58;;;1.80;;
51495;SDS011;37572;52.094;4.870;2023-06-14T11:30:16;2.30;;;1.60;;
51495;SDS011;37572;52.094;4.870;2023-06-14T11:32:41;3.72;;;2.20;;
51495;SDS011;37572;52.094;4.870;2023-06-14T11:35:08;4.20;;;1.67;;
51495;SDS011;37572;52.094;4.870;2023-06-14T11:37:34;2.97;;;1.58;;
51495;SDS011;37572;52.094;4.870;2023-06-14T11:40:02;4.10;;;1.75;;
51495;SDS011;37572;52.094;4.870;2023-06-14T11:42:32;2.80;;;1.20;;
51495;SDS011;37572;52.094;4.870;2023-06-14T11:44:58;3.92;;;1.63;;
51495;SDS011;37572;52.094;4.870;2023-06-14T11:47:24;2.77;;;1.83;;
51495;SDS011;37572;52.094;4.870;2023-06-14T11:49:49;3.25;;;1.67;;
51495;SDS011;37572;52.094;4.870;2023-06-14T11:52:14;5.75;;;1.70;;
51495;SDS011;37572;52.094;4.870;2023-06-14T11:54:40;2.85;;;1.10;;
51495;SDS011;37572;52.094;4.870;2023-06-14T11:57:09;3.03;;;1.55;;
51495;SDS011;37572;52.094;4.870;2023-06-14T11:59:38;2.55;;;1.58;;
51495;SDS011;37572;52.094;4.870;2023-06-14T12:02:05;2.58;;;1.27;;
51495;SDS011;37572;52.094;4.870;2023-06-14T12:04:31;2.67;;;1.42;;
51495;SDS011;37572;52.094;4.870;2023-06-14T12:06:57;4.68;;;1.50;;
51495;SDS011;37572;52.094;4.870;2023-06-14T12:09:22;2.58;;;1.33;;
51495;SDS011;37572;52.094;4.870;2023-06-14T12:11:50;4.57;;;1.73;;
51495;SDS011;37572;52.094;4.870;2023-06-14T12:14:28;3.55;;;1.17;;
51495;SDS011;37572;52.094;4.870;2023-06-14T12:17:03;2.20;;;1.20;;
51495;SDS011;37572;52.094;4.870;2023-06-14T12:19:31;3.45;;;1.38;;
51495;SDS011;37572;52.094;4.870;2023-06-14T12:21:57;3.28;;;1.38;;
51495;SDS011;37572;52.094;4.870;2023-06-14T12:24:27;4.63;;;1.38;;
51495;SDS011;37572;52.094;4.870;2023-06-14T12:26:54;2.60;;;1.50;;
51495;SDS011;37572;52.094;4.870;2023-06-14T12:29:19;3.25;;;1.35;;
51495;SDS011;37572;52.094;4.870;2023-06-14T12:31:44;4.13;;;1.50;;
51495;SDS011;37572;52.094;4.870;2023-06-14T12:34:10;2.25;;;1.40;;
51495;SDS011;37572;52.094;4.870;2023-06-14T12:36:35;2.95;;;1.48;;
51495;SDS011;37572;52.094;4.870;2023-06-14T12:39:06;3.75;;;1.90;;
51495;SDS011;37572;52.094;4.870;2023-06-14T12:41:33;3.75;;;1.63;;
51495;SDS011;37572;52.094;4.870;2023-06-14T12:43:58;2.60;;;1.67;;
51495;SDS011;37572;52.094;4.870;2023-06-14T12:46:24;3.38;;;1.67;;
51495;SDS011;37572;52.094;4.870;2023-06-14T12:48:50;2.50;;;1.10;;
51495;SDS011;37572;52.094;4.870;2023-06-14T12:51:16;3.15;;;1.30;;
51495;SDS011;37572;52.094;4.870;2023-06-14T12:53:41;4.20;;;1.40;;
51495;SDS011;37572;52.094;4.870;2023-06-14T12:56:06;3.30;;;1.52;;
51495;SDS011;37572;52.094;4.870;2023-06-14T12:58:32;2.60;;;1.30;;
51495;SDS011;37572;52.094;4.870;2023-06-14T13:00:57;2.28;;;1.38;;
51495;SDS011;37572;52.094;4.870;2023-06-14T13:03:22;2.20;;;1.33;;
51495;SDS011;37572;52.094;4.870;2023-06-14T13:05:48;2.40;;;1.40;;
51495;SDS011;37572;52.094;4.870;2023-06-14T13:08:13;2.85;;;1.58;;
51495;SDS011;37572;52.094;4.870;2023-06-14T13:10:39;2.65;;;1.60;;
51495;SDS011;37572;52.094;4.870;2023-06-14T13:13:04;3.13;;;1.40;;
51495;SDS011;37572;52.094;4.870;2023-06-14T13:15:30;3.22;;;1.30;;
51495;SDS011;37572;52.094;4.870;2023-06-14T13:17:55;3.07;;;1.50;;
51495;SDS011;37572;52.094;4.870;2023-06-14T13:20:20;2.63;;;1.70;;
51495;SDS011;37572;52.094;4.870;2023-06-14T13:22:46;3.03;;;1.40;;
51495;SDS011;37572;52.094;4.870;2023-06-14T13:25:11;3.60;;;1.80;;
51495;SDS011;37572;52.094;4.870;2023-06-14T13:27:37;2.63;;;1.60;;
51495;SDS011;37572;52.094;4.870;2023-06-14T13:30:03;10.85;;;2.42;;
51495;SDS011;37572;52.094;4.870;2023-06-14T13:32:30;4.45;;;1.90;;
51495;SDS011;37572;52.094;4.870;2023-06-14T13:34:56;2.20;;;1.45;;
51495;SDS011;37572;52.094;4.870;2023-06-14T13:37:21;4.95;;;1.88;;
51495;SDS011;37572;52.094;4.870;2023-06-14T13:39:46;3.20;;;1.60;;
51495;SDS011;37572;52.094;4.870;2023-06-14T13:42:12;2.67;;;1.40;;
51495;SDS011;37572;52.094;4.870;2023-06-14T13:44:37;2.47;;;1.57;;
51495;SDS011;37572;52.094;4.870;2023-06-14T13:47:02;4.38;;;1.80;;
51495;SDS011;37572;52.094;4.870;2023-06-14T13:49:28;3.08;;;1.60;;
51495;SDS011;37572;52.094;4.870;2023-06-14T13:51:53;3.28;;;1.60;;
51495;SDS011;37572;52.094;4.870;2023-06-14T13:54:19;4.38;;;1.70;;
51495;SDS011;37572;52.094;4.870;2023-06-14T13:56:46;3.47;;;1.80;;
51495;SDS011;37572;52.094;4.870;2023-06-14T13:59:12;4.32;;;2.00;;
51495;SDS011;37572;52.094;4.870;2023-06-14T14:01:37;3.35;;;2.10;;
51495;SDS011;37572;52.094;4.870;2023-06-14T14:04:03;3.40;;;2.03;;
51495;SDS011;37572;52.094;4.870;2023-06-14T14:06:29;2.38;;;1.70;;
51495;SDS011;37572;52.094;4.870;2023-06-14T14:08:55;3.97;;;1.85;;
51495;SDS011;37572;52.094;4.870;2023-06-14T14:11:21;2.85;;;1.55;;
51495;SDS011;37572;52.094;4.870;2023-06-14T14:13:47;6.05;;;1.90;;
51495;SDS011;37572;52.094;4.870;2023-06-14T14:16:12;3.43;;;1.90;;
51495;SDS011;37572;52.094;4.870;2023-06-14T14:18:38;2.60;;;1.70;;
51495;SDS011;37572;52.094;4.870;2023-06-14T14:21:03;4.78;;;1.77;;
51495;SDS011;37572;52.094;4.870;2023-06-14T14:23:29;3.15;;;1.60;;
51495;SDS011;37572;52.094;4.870;2023-06-14T14:25:54;3.17;;;1.55;;
51495;SDS011;37572;52.094;4.870;2023-06-14T14:28:20;4.22;;;1.90;;
51495;SDS011;37572;52.094;4.870;2023-06-14T14:30:45;2.80;;;1.63;;
51495;SDS011;37572;52.094;4.870;2023-06-14T14:33:12;2.35;;;1.50;;
51495;SDS011;37572;52.094;4.870;2023-06-14T14:35:41;3.42;;;2.10;;
51495;SDS011;37572;52.094;4.870;2023-06-14T14:38:07;3.42;;;1.88;;
51495;SDS011;37572;52.094;4.870;2023-06-14T14:40:32;2.92;;;1.60;;
51495;SDS011;37572;52.094;4.870;2023-06-14T14:42:57;3.60;;;1.70;;
51495;SDS011;37572;52.094;4.870;2023-06-14T14:45:23;3.47;;;1.38;;
51495;SDS011;37572;52.094;4.870;2023-06-14T14:47:48;2.53;;;1.43;;
51495;SDS011;37572;52.094;4.870;2023-06-14T14:50:14;2.90;;;1.50;;
51495;SDS011;37572;52.094;4.870;2023-06-14T14:52:39;4.13;;;1.70;;
51495;SDS011;37572;52.094;4.870;2023-06-14T14:55:05;3.53;;;1.60;;
51495;SDS011;37572;52.094;4.870;2023-06-14T14:57:31;2.90;;;1.88;;
51495;SDS011;37572;52.094;4.870;2023-06-14T14:59:57;2.40;;;1.42;;